Time;durP1;ratioP1;P1;durP2;ratioP2;P2;SDS_P1;SDS_P2;PMS_P1;PMS_P2;Temp;Humidity;BMP_temperature;BMP_pressure;BME280_temperature;BME280_humidity;BME280_pressure;Samples;Min_cycle;Max_cycle;Signal;HPM_P1;HPM_P2
2023/04/19 00:01:28;;;;;;;0.30;0.30;;;4.00;99.90;;;;;;5018055;28;20030;-70
2023/04/19 00:03:54;;;;;;;0.20;0.20;;;3.90;99.90;;;;;;5018065;28;20093;-70
2023/04/19 00:06:20;;;;;;;0.20;0.20;;;3.80;99.90;;;;;;5018464;28;20026;-70
2023/04/19 00:08:45;;;;;;;0.20;0.20;;;3.80;99.90;;;;;;5035762;28;20022;-70
2023/04/19 00:11:11;;;;;;;0.20;0.20;;;3.80;99.90;;;;;;5037512;28;20064;-70
2023/04/19 00:13:37;;;;;;;0.22;0.22;;;3.70;99.90;;;;;;5036588;28;20026;-70
2023/04/19 00:16:02;;;;;;;0.30;0.30;;;3.60;99.90;;;;;;5028917;28;20033;-70
2023/04/19 00:18:28;;;;;;;0.13;0.13;;;3.60;99.90;;;;;;5033263;28;20538;-70
2023/04/19 00:20:53;;;;;;;0.20;0.20;;;3.50;99.90;;;;;;5036100;28;20475;-70
2023/04/19 00:23:19;;;;;;;0.20;0.20;;;3.50;99.90;;;;;;5037600;28;20084;-69
2023/04/19 00:25:45;;;;;;;0.20;0.20;;;3.40;99.90;;;;;;5036738;28;20103;-70
2023/04/19 00:28:11;;;;;;;0.30;0.30;;;3.40;99.90;;;;;;5037684;28;20025;-70
2023/04/19 00:30:36;;;;;;;0.20;0.20;;;3.30;99.90;;;;;;5037014;28;20038;-70
2023/04/19 00:33:02;;;;;;;0.20;0.20;;;3.30;99.90;;;;;;5036780;28;20057;-69
2023/04/19 00:35:27;;;;;;;0.20;0.20;;;3.20;99.90;;;;;;5037632;28;20443;-70
2023/04/19 00:37:53;;;;;;;0.20;0.20;;;3.20;99.90;;;;;;5037746;28;20021;-70
2023/04/19 00:40:18;;;;;;;0.20;0.20;;;3.20;99.90;;;;;;5037290;28;20108;-70
2023/04/19 00:42:44;;;;;;;0.20;0.20;;;3.20;99.90;;;;;;5036878;28;20026;-70
2023/04/19 00:45:10;;;;;;;0.30;0.30;;;3.20;99.90;;;;;;5037291;28;20037;-70
2023/04/19 00:47:37;;;;;;;0.20;0.20;;;3.20;99.90;;;;;;5037355;28;20081;-70
2023/04/19 00:50:03;;;;;;;0.20;0.20;;;3.20;99.90;;;;;;5036839;28;20036;-70
2023/04/19 00:52:29;;;;;;;0.22;0.22;;;3.20;99.90;;;;;;5036958;28;20033;-70
2023/04/19 00:54:55;;;;;;;0.20;0.20;;;3.20;99.90;;;;;;5035425;28;20082;-70
2023/04/19 00:57:22;;;;;;;0.30;0.30;;;3.10;99.90;;;;;;5037504;28;20017;-70
2023/04/19 00:59:48;;;;;;;0.20;0.20;;;3.10;99.90;;;;;;5035698;28;20057;-70
2023/04/19 01:02:13;;;;;;;0.20;0.20;;;3.00;99.90;;;;;;5047999;23;20103;-74
2023/04/19 01:04:39;;;;;;;0.20;0.20;;;3.00;99.90;;;;;;5034617;28;20065;-75
2023/04/19 01:07:05;;;;;;;0.22;0.22;;;3.00;99.90;;;;;;5034506;28;20060;-74
2023/04/19 01:09:31;;;;;;;0.10;0.10;;;3.00;99.90;;;;;;5034130;28;20053;-74
2023/04/19 01:11:56;;;;;;;0.22;0.22;;;3.00;99.90;;;;;;5046790;28;20059;-74
2023/04/19 01:14:22;;;;;;;0.20;0.20;;;3.00;99.90;;;;;;5052572;28;20071;-72
2023/04/19 01:16:48;;;;;;;0.20;0.20;;;3.00;99.90;;;;;;5048424;28;20127;-74
2023/04/19 01:19:13;;;;;;;0.30;0.30;;;3.00;99.90;;;;;;5053626;28;20025;-74
2023/04/19 01:21:39;;;;;;;0.30;0.30;;;3.00;99.90;;;;;;5133867;23;20038;-74
2023/04/19 01:24:05;;;;;;;0.20;0.20;;;3.10;99.90;;;;;;5014640;28;20049;-75
2023/04/19 01:26:31;;;;;;;0.20;0.20;;;3.20;99.90;;;;;;5013580;28;20022;-74
2023/04/19 01:28:56;;;;;;;0.28;0.28;;;3.20;99.90;;;;;;5014661;28;20022;-75
2023/04/19 01:31:22;;;;;;;0.22;0.22;;;3.30;99.90;;;;;;5022130;28;20368;-75
2023/04/19 01:33:47;;;;;;;0.20;0.20;;;3.30;99.90;;;;;;5034418;28;20060;-74
2023/04/19 01:36:13;;;;;;;0.20;0.20;;;3.40;99.90;;;;;;5034124;28;20116;-75
2023/04/19 01:38:38;;;;;;;0.20;0.20;;;3.50;99.90;;;;;;5034198;28;20036;-74
2023/04/19 01:41:04;;;;;;;0.20;0.20;;;3.50;99.90;;;;;;5033522;28;20475;-74
2023/04/19 01:43:29;;;;;;;0.35;0.35;;;3.40;99.90;;;;;;5034121;28;20475;-74
2023/04/19 01:45:55;;;;;;;0.20;0.20;;;3.50;99.90;;;;;;5034143;28;20100;-74
2023/04/19 01:48:20;;;;;;;0.20;0.20;;;3.50;99.90;;;;;;5034487;28;20030;-75
2023/04/19 01:50:46;;;;;;;0.20;0.20;;;3.60;99.90;;;;;;5034064;28;20026;-75
2023/04/19 01:53:11;;;;;;;0.30;0.30;;;3.50;99.90;;;;;;5016202;28;20120;-75
2023/04/19 01:55:37;;;;;;;0.20;0.20;;;3.50;99.90;;;;;;5015593;28;20483;-75
2023/04/19 01:58:03;;;;;;;0.28;0.28;;;3.40;99.90;;;;;;5034216;28;20025;-74
2023/04/19 02:00:28;;;;;;;0.20;0.20;;;3.40;99.90;;;;;;5015928;28;20026;-74
2023/04/19 02:02:54;;;;;;;0.20;0.20;;;3.40;99.90;;;;;;5033860;28;20033;-74
2023/04/19 02:05:20;;;;;;;0.20;0.20;;;3.30;99.90;;;;;;5033675;28;20026;-74
2023/04/19 02:07:45;;;;;;;0.17;0.17;;;3.30;99.90;;;;;;5033195;28;20021;-73
2023/04/19 02:10:11;;;;;;;0.20;0.20;;;3.30;99.90;;;;;;5015911;28;20022;-74
2023/04/19 02:12:37;;;;;;;0.10;0.10;;;3.20;99.90;;;;;;5033580;28;20026;-74
2023/04/19 02:15:03;;;;;;;0.30;0.30;;;3.10;99.90;;;;;;5033464;28;20053;-74
2023/04/19 02:17:29;;;;;;;0.20;0.20;;;3.10;99.90;;;;;;5033477;28;20029;-74
2023/04/19 02:19:54;;;;;;;0.20;0.20;;;3.10;99.90;;;;;;5033743;28;20026;-74
2023/04/19 02:22:20;;;;;;;0.20;0.20;;;3.10;99.90;;;;;;5032783;28;20168;-74
2023/04/19 02:24:48;;;;;;;0.20;0.20;;;3.00;99.90;;;;;;5033454;28;20471;-74
2023/04/19 02:27:14;;;;;;;0.20;0.20;;;2.90;99.90;;;;;;5033345;28;20032;-75
2023/04/19 02:29:39;;;;;;;0.30;0.30;;;2.90;99.90;;;;;;5033403;28;20096;-74
2023/04/19 02:32:05;;;;;;;0.20;0.20;;;2.80;99.90;;;;;;5033549;28;20033;-75
2023/04/19 02:34:34;;;;;;;0.20;0.20;;;2.70;99.90;;;;;;5033662;28;20021;-74
2023/04/19 02:37:00;;;;;;;0.28;0.28;;;2.60;99.90;;;;;;5032987;28;20026;-74
2023/04/19 02:39:26;;;;;;;0.20;0.20;;;2.60;99.90;;;;;;5033206;28;20479;-74
2023/04/19 02:41:52;;;;;;;0.20;0.20;;;2.50;99.90;;;;;;5033174;28;20037;-74
2023/04/19 02:44:17;;;;;;;0.30;0.30;;;2.40;99.90;;;;;;5015416;28;20084;-74
2023/04/19 02:46:50;;;;;;;0.30;0.30;;;2.30;99.90;;;;;;5032636;28;20037;-75
2023/04/19 02:49:16;;;;;;;0.25;0.25;;;2.30;99.90;;;;;;5032833;28;20437;-75
2023/04/19 02:51:42;;;;;;;0.20;0.20;;;2.20;99.90;;;;;;5033018;28;20041;-74
2023/04/19 02:54:07;;;;;;;0.20;0.20;;;2.10;99.90;;;;;;5033432;28;20029;-72
2023/04/19 02:56:33;;;;;;;0.20;0.20;;;2.00;99.90;;;;;;5028471;28;20030;-74
2023/04/19 02:59:02;;;;;;;0.20;0.20;;;1.90;99.90;;;;;;5023350;28;20395;-75
2023/04/19 03:01:27;;;;;;;0.20;0.20;;;1.90;99.90;;;;;;5012248;28;20026;-74
2023/04/19 03:03:53;;;;;;;0.30;0.30;;;2.00;99.90;;;;;;5031544;28;20036;-74
2023/04/19 03:06:18;;;;;;;0.20;0.20;;;2.00;99.90;;;;;;5032578;28;20026;-74
2023/04/19 03:08:44;;;;;;;0.20;0.20;;;2.10;99.90;;;;;;5014583;28;20021;-74
2023/04/19 03:11:11;;;;;;;0.20;0.20;;;2.00;99.90;;;;;;5014833;28;20391;-74
2023/04/19 03:13:36;;;;;;;0.20;0.20;;;2.00;99.90;;;;;;5012618;28;20032;-74
2023/04/19 03:16:04;;;;;;;0.30;0.30;;;2.00;99.90;;;;;;5027518;28;20037;-74
2023/04/19 03:18:30;;;;;;;0.20;0.20;;;2.00;99.90;;;;;;5014690;28;20479;-74
2023/04/19 03:20:56;;;;;;;0.17;0.17;;;2.00;99.90;;;;;;5030455;28;20029;-74
2023/04/19 03:23:21;;;;;;;0.20;0.20;;;2.00;99.90;;;;;;5014505;28;20044;-74
2023/04/19 03:25:47;;;;;;;0.20;0.20;;;1.90;99.90;;;;;;5032454;28;20022;-74
2023/04/19 03:28:12;;;;;;;0.20;0.20;;;1.90;99.90;;;;;;5032709;28;20040;-74
2023/04/19 03:30:38;;;;;;;0.20;0.20;;;1.80;99.90;;;;;;5033463;28;20360;-74
2023/04/19 03:33:03;;;;;;;0.20;0.20;;;1.80;99.90;;;;;;5030623;28;20033;-74
2023/04/19 03:35:31;;;;;;;0.20;0.20;;;1.70;99.90;;;;;;5032620;28;20498;-74
2023/04/19 03:37:56;;;;;;;0.20;0.20;;;1.60;99.90;;;;;;5032677;28;20021;-74
2023/04/19 03:40:22;;;;;;;0.20;0.20;;;1.50;99.90;;;;;;5032132;28;20029;-73
2023/04/19 03:42:47;;;;;;;0.30;0.30;;;1.50;99.90;;;;;;5032132;28;20072;-74
2023/04/19 03:45:13;;;;;;;0.20;0.20;;;1.40;99.90;;;;;;5033106;28;20109;-74
2023/04/19 03:47:38;;;;;;;0.20;0.20;;;1.40;99.90;;;;;;5032917;28;20030;-74
2023/04/19 03:50:04;;;;;;;0.28;0.28;;;1.40;99.90;;;;;;5033123;28;20029;-74
2023/04/19 03:52:30;;;;;;;0.30;0.30;;;1.30;99.90;;;;;;5025174;28;20444;-74
2023/04/19 03:54:55;;;;;;;0.30;0.30;;;1.30;99.90;;;;;;5032276;28;20100;-74
2023/04/19 03:57:21;;;;;;;0.20;0.20;;;1.30;99.90;;;;;;5032345;28;20473;-74
2023/04/19 03:59:46;;;;;;;0.22;0.22;;;1.20;99.90;;;;;;5032365;28;20030;-74
2023/04/19 04:02:12;;;;;;;0.20;0.20;;;1.30;99.90;;;;;;5017205;28;20418;-74
2023/04/19 04:04:37;;;;;;;0.20;0.20;;;1.30;99.90;;;;;;5035854;28;20037;-74
2023/04/19 04:07:03;;;;;;;0.22;0.22;;;1.30;99.90;;;;;;5035505;28;20151;-74
2023/04/19 04:09:29;;;;;;;0.30;0.30;;;1.30;99.90;;;;;;5035862;28;20033;-74
2023/04/19 04:11:54;;;;;;;0.30;0.30;;;1.30;99.90;;;;;;5011780;28;20041;-74
2023/04/19 04:14:20;;;;;;;0.20;0.20;;;1.30;99.90;;;;;;5015899;28;20107;-74
2023/04/19 04:16:45;;;;;;;0.30;0.30;;;1.30;99.90;;;;;;5021537;28;20029;-74
2023/04/19 04:19:11;;;;;;;0.20;0.20;;;1.20;99.90;;;;;;5035170;28;20040;-74
2023/04/19 04:21:36;;;;;;;0.30;0.30;;;1.30;99.90;;;;;;5035573;28;20057;-74
2023/04/19 04:24:02;;;;;;;0.30;0.30;;;1.30;99.90;;;;;;5034656;28;20022;-74
2023/04/19 04:26:32;;;;;;;0.20;0.20;;;1.20;99.90;;;;;;5033900;28;20779;-73
2023/04/19 04:29:00;;;;;;;0.20;0.20;;;1.20;99.90;;;;;;5015735;28;20505;-74
2023/04/19 04:31:26;;;;;;;0.30;0.30;;;1.20;99.90;;;;;;5003299;28;20038;-73
2023/04/19 04:33:54;;;;;;;0.20;0.20;;;1.20;99.90;;;;;;5015525;28;20018;-74
2023/04/19 04:36:20;;;;;;;0.20;0.20;;;1.30;99.90;;;;;;4997501;28;20488;-74
2023/04/19 04:38:46;;;;;;;0.20;0.20;;;1.20;99.90;;;;;;5015660;28;20029;-74
2023/04/19 04:41:12;;;;;;;0.28;0.28;;;1.30;99.90;;;;;;5014899;28;20026;-74
2023/04/19 04:43:40;;;;;;;0.20;0.20;;;1.30;99.90;;;;;;5015306;28;20030;-74
2023/04/19 04:46:05;;;;;;;0.30;0.30;;;1.60;99.90;;;;;;5015370;28;20021;-74
2023/04/19 04:48:31;;;;;;;0.20;0.20;;;1.60;99.90;;;;;;5015442;28;20388;-74
2023/04/19 04:50:57;;;;;;;0.22;0.22;;;1.70;99.90;;;;;;5014745;28;20037;-74
2023/04/19 04:53:27;;;;;;;0.20;0.20;;;2.10;99.90;;;;;;5029870;28;20029;-74
2023/04/19 04:55:53;;;;;;;0.20;0.20;;;2.30;99.90;;;;;;5017133;28;20179;-74
2023/04/19 04:58:21;;;;;;;0.20;0.20;;;2.40;99.90;;;;;;5034940;28;20101;-74
2023/04/19 05:00:47;;;;;;;0.30;0.30;;;2.50;99.90;;;;;;5034368;28;20553;-74
2023/04/19 05:03:13;;;;;;;0.20;0.20;;;2.50;99.90;;;;;;5034351;28;20033;-74
2023/04/19 05:05:39;;;;;;;0.20;0.20;;;2.60;99.90;;;;;;5016922;28;20029;-74
2023/04/19 05:08:05;;;;;;;0.20;0.20;;;2.80;99.90;;;;;;5034575;28;20029;-74
2023/04/19 05:10:30;;;;;;;0.30;0.30;;;2.90;99.90;;;;;;5016615;28;20057;-74
2023/04/19 05:12:56;;;;;;;0.30;0.30;;;3.00;99.90;;;;;;5079458;23;20048;-74
2023/04/19 05:15:21;;;;;;;0.30;0.30;;;3.00;99.90;;;;;;5014635;28;20073;-74
2023/04/19 05:17:49;;;;;;;0.20;0.20;;;3.10;99.90;;;;;;5014842;28;20053;-74
2023/04/19 05:20:15;;;;;;;0.20;0.20;;;3.20;99.90;;;;;;5014661;28;20438;-74
2023/04/19 05:22:40;;;;;;;0.22;0.22;;;3.30;99.90;;;;;;5032204;28;20025;-74
2023/04/19 05:25:06;;;;;;;0.30;0.30;;;3.30;99.90;;;;;;5032969;28;20051;-74
2023/04/19 05:27:32;;;;;;;0.20;0.20;;;3.30;99.90;;;;;;5034350;28;20025;-74
2023/04/19 05:30:00;;;;;;;0.40;0.40;;;3.40;99.90;;;;;;5034080;28;20025;-74
2023/04/19 05:32:26;;;;;;;0.20;0.20;;;3.60;99.90;;;;;;5033175;28;20026;-74
2023/04/19 05:34:52;;;;;;;0.28;0.28;;;3.70;99.90;;;;;;5034278;28;20475;-75
2023/04/19 05:37:17;;;;;;;0.22;0.22;;;3.90;99.90;;;;;;5024063;28;20029;-74
2023/04/19 05:39:43;;;;;;;0.20;0.20;;;4.10;99.90;;;;;;5014362;28;20029;-74
2023/04/19 05:42:08;;;;;;;0.20;0.20;;;4.30;99.90;;;;;;5014036;28;20419;-74
2023/04/19 05:44:34;;;;;;;0.20;0.20;;;4.40;99.90;;;;;;5014293;28;20032;-74
2023/04/19 05:47:00;;;;;;;0.20;0.20;;;4.60;99.90;;;;;;5014289;28;20030;-74
2023/04/19 05:49:25;;;;;;;0.20;0.20;;;4.80;99.90;;;;;;5015749;28;20403;-73
2023/04/19 05:51:51;;;;;;;0.20;0.20;;;5.00;99.90;;;;;;5014100;28;20480;-73
2023/04/19 05:54:20;;;;;;;0.20;0.20;;;5.20;99.90;;;;;;5013012;28;20057;-74
2023/04/19 05:56:45;;;;;;;0.20;0.20;;;5.40;99.90;;;;;;5019449;28;20072;-74
2023/04/19 05:59:12;;;;;;;0.20;0.20;;;5.50;99.90;;;;;;5033658;28;20026;-74
2023/04/19 06:01:38;;;;;;;0.20;0.20;;;5.70;99.90;;;;;;5033432;28;20067;-74
2023/04/19 06:04:03;;;;;;;0.20;0.20;;;5.90;99.90;;;;;;5033381;28;20033;-73
2023/04/19 06:06:29;;;;;;;0.20;0.20;;;6.10;99.90;;;;;;5033662;28;20506;-74
2023/04/19 06:08:54;;;;;;;0.13;0.13;;;6.30;99.90;;;;;;5033208;28;20105;-73
2023/04/19 06:11:21;;;;;;;0.20;0.20;;;6.50;99.90;;;;;;5013508;28;20034;-73
2023/04/19 06:13:47;;;;;;;0.20;0.20;;;6.80;99.90;;;;;;5013666;28;20033;-74
2023/04/19 06:16:12;;;;;;;0.20;0.20;;;7.00;99.90;;;;;;5012681;28;20368;-74
2023/04/19 06:18:38;;;;;;;0.20;0.20;;;7.20;99.90;;;;;;5013135;28;20517;-74
2023/04/19 06:21:05;;;;;;;0.17;0.17;;;7.30;99.90;;;;;;5064603;23;20042;-74
2023/04/19 06:23:30;;;;;;;0.20;0.20;;;7.40;99.90;;;;;;5034636;28;20549;-74
2023/04/19 06:26:04;;;;;;;0.20;0.20;;;7.60;99.90;;;;;;5035696;28;20112;-74
2023/04/19 06:28:35;;;;;;;;;;;7.70;99.90;;;;;;5015501;28;20557;-74
2023/04/19 06:31:11;;;;;;;0.10;0.10;;;7.90;99.90;;;;;;5033263;28;19944;-75
2023/04/19 06:33:39;;;;;;;0.20;0.20;;;8.00;99.90;;;;;;5015583;28;20022;-75
2023/04/19 06:36:05;;;;;;;0.20;0.20;;;8.20;99.90;;;;;;5033638;28;20029;-75
2023/04/19 06:38:30;;;;;;;0.20;0.20;;;8.50;99.90;;;;;;5032568;28;20018;-74
2023/04/19 06:40:56;;;;;;;0.20;0.20;;;8.60;99.90;;;;;;5033022;28;20423;-75
2023/04/19 06:43:23;;;;;;;0.20;0.20;;;8.70;99.90;;;;;;5032738;28;20434;-75
2023/04/19 06:45:48;;;;;;;0.10;0.10;;;8.80;99.90;;;;;;5015421;28;20033;-75
2023/04/19 06:48:14;;;;;;;0.20;0.20;;;9.00;99.90;;;;;;5033011;28;20029;-75
2023/04/19 06:50:39;;;;;;;0.20;0.20;;;9.10;99.90;;;;;;5023568;28;20017;-74
2023/04/19 06:53:05;;;;;;;0.20;0.20;;;9.20;99.90;;;;;;5052386;28;20482;-75
2023/04/19 06:55:33;;;;;;;0.20;0.20;;;9.30;99.90;;;;;;5052688;28;20029;-75
2023/04/19 06:57:58;;;;;;;0.20;0.20;;;9.40;99.90;;;;;;5053179;28;20235;-75
2023/04/19 07:00:24;;;;;;;0.30;0.30;;;9.60;99.90;;;;;;5052338;28;20092;-74
2023/04/19 07:02:50;;;;;;;0.20;0.20;;;9.70;99.90;;;;;;5034798;28;20026;-75
2023/04/19 07:05:19;;;;;;;0.20;0.20;;;9.90;99.90;;;;;;5051551;28;20017;-76
2023/04/19 07:07:47;;;;;;;0.20;0.20;;;10.00;99.90;;;;;;5034501;28;20036;-75
2023/04/19 07:10:13;;;;;;;0.20;0.20;;;10.00;99.90;;;;;;5042508;28;20025;-76
2023/04/19 07:12:38;;;;;;;0.10;0.10;;;10.10;99.90;;;;;;5033983;28;20026;-76
2023/04/19 07:15:04;;;;;;;0.10;0.10;;;10.20;99.90;;;;;;5052726;28;20052;-75
2023/04/19 07:17:30;;;;;;;0.20;0.20;;;10.30;99.90;;;;;;5052481;28;20053;-75
2023/04/19 07:19:56;;;;;;;0.20;0.20;;;10.30;99.90;;;;;;5052697;28;20471;-77
2023/04/19 07:22:21;;;;;;;0.10;0.10;;;10.50;99.90;;;;;;5035394;28;20472;-75
2023/04/19 07:24:47;;;;;;;0.13;0.13;;;10.60;99.90;;;;;;5052388;28;20117;-75
2023/04/19 07:27:13;;;;;;;0.17;0.17;;;10.80;99.90;;;;;;5051602;28;20372;-75
2023/04/19 07:29:40;;;;;;;0.20;0.20;;;10.90;99.90;;;;;;5052689;28;20029;-76
2023/04/19 07:32:05;;;;;;;0.13;0.13;;;11.00;99.90;;;;;;5052610;28;20021;-75
2023/04/19 07:34:31;;;;;;;0.20;0.20;;;11.10;99.90;;;;;;5052484;28;20036;-75
2023/04/19 07:36:56;;;;;;;0.30;0.30;;;11.20;99.90;;;;;;5055831;28;20029;-75
2023/04/19 07:39:22;;;;;;;0.10;0.10;;;11.40;99.90;;;;;;5056389;28;20021;-74
2023/04/19 07:41:47;;;;;;;0.22;0.22;;;11.60;99.90;;;;;;5038376;28;20013;-75
2023/04/19 07:44:13;;;;;;;0.20;0.20;;;11.70;99.90;;;;;;5044791;28;20036;-75
2023/04/19 07:46:40;;;;;;;0.20;0.20;;;11.80;99.90;;;;;;5034715;28;20056;-75
2023/04/19 07:49:06;;;;;;;0.10;0.10;;;11.90;99.90;;;;;;5036092;28;20022;-75
2023/04/19 07:51:31;;;;;;;0.10;0.10;;;11.90;99.90;;;;;;5018321;28;20487;-75
2023/04/19 07:53:57;;;;;;;0.10;0.10;;;12.00;99.90;;;;;;5018411;28;20029;-75
2023/04/19 07:56:25;;;;;;;0.20;0.20;;;12.00;99.90;;;;;;5035450;28;20110;-75
2023/04/19 07:58:50;;;;;;;0.13;0.13;;;12.10;99.90;;;;;;5018292;28;20033;-76
2023/04/19 08:01:16;;;;;;;0.20;0.20;;;12.20;99.90;;;;;;5045593;23;20043;-76
2023/04/19 08:03:41;;;;;;;0.15;0.15;;;12.50;99.90;;;;;;5016007;28;20026;-77
2023/04/19 08:06:07;;;;;;;0.13;0.13;;;12.70;99.90;;;;;;5016127;28;20502;-75
2023/04/19 08:08:34;;;;;;;0.10;0.10;;;12.80;99.90;;;;;;5015814;28;20053;-76
2023/04/19 08:11:01;;;;;;;0.17;0.17;;;12.60;99.90;;;;;;4998451;28;20030;-76
2023/04/19 08:13:27;;;;;;;0.17;0.17;;;12.70;99.90;;;;;;5015968;28;20022;-76
2023/04/19 08:15:52;;;;;;;0.20;0.20;;;12.70;99.90;;;;;;5015909;28;20033;-76
2023/04/19 08:18:18;;;;;;;0.20;0.20;;;12.60;99.90;;;;;;5015437;28;20395;-75
2023/04/19 08:20:45;;;;;;;0.20;0.20;;;12.70;99.90;;;;;;5015699;28;20095;-76
2023/04/19 08:23:11;;;;;;;0.20;0.20;;;12.70;99.90;;;;;;5015813;28;20022;-75
2023/04/19 08:25:37;;;;;;;0.30;0.30;;;12.80;99.90;;;;;;5015764;28;20037;-75
2023/04/19 08:28:03;;;;;;;0.10;0.10;;;12.80;99.90;;;;;;5015635;28;20037;-75
2023/04/19 08:30:29;;;;;;;0.10;0.10;;;12.80;99.90;;;;;;5014972;28;20041;-76
2023/04/19 08:32:55;;;;;;;0.20;0.20;;;12.90;99.90;;;;;;5015590;28;20021;-76
2023/04/19 08:35:24;;;;;;;0.20;0.20;;;13.20;99.90;;;;;;5016089;28;20384;-76
2023/04/19 08:37:52;;;;;;;0.17;0.17;;;13.20;99.90;;;;;;5015562;28;20395;-76
2023/04/19 08:40:17;;;;;;;0.17;0.17;;;13.30;99.90;;;;;;5015511;28;20029;-76
2023/04/19 08:42:43;;;;;;;0.20;0.20;;;13.40;99.90;;;;;;5168790;23;20041;-76
2023/04/19 08:45:12;;;;;;;0.28;0.28;;;13.40;99.90;;;;;;5054511;28;20079;-76
2023/04/19 08:47:39;;;;;;;0.20;0.20;;;13.60;99.90;;;;;;5054051;28;20429;-76
2023/04/19 08:50:06;;;;;;;0.17;0.17;;;13.60;99.90;;;;;;5037163;28;20505;-76
2023/04/19 08:52:36;;;;;;;0.20;0.20;;;13.80;99.90;;;;;;5055513;28;20382;-76
2023/04/19 08:55:07;;;;;;;0.20;0.20;;;13.80;99.90;;;;;;5054302;28;20029;-76
2023/04/19 08:57:34;;;;;;;0.10;0.10;;;13.70;99.90;;;;;;5054861;28;20498;-75
2023/04/19 09:00:04;;;;;;;0.20;0.20;;;13.70;99.90;;;;;;5054687;28;20091;-76
2023/04/19 09:02:47;;;;;;;0.20;0.20;;;13.70;99.90;;;;;;5054756;28;20032;-75
2023/04/19 09:05:14;;;;;;;0.20;0.20;;;14.00;99.90;;;;;;5054293;28;20494;-75
2023/04/19 09:07:39;;;;;;;0.10;0.10;;;14.20;99.90;;;;;;5055190;28;20100;-76
2023/04/19 09:10:06;;;;;;;0.20;0.20;;;14.30;99.90;;;;;;5042286;28;20046;-76
2023/04/19 09:12:34;;;;;;;0.20;0.20;;;14.70;99.90;;;;;;5034218;28;20100;-76
2023/04/19 09:15:01;;;;;;;0.20;0.20;;;14.70;99.90;;;;;;5034332;28;20029;-75
2023/04/19 09:17:29;;;;;;;0.20;0.20;;;14.60;99.90;;;;;;5031137;28;20049;-75
2023/04/19 09:19:55;;;;;;;0.20;0.20;;;14.70;99.90;;;;;;5016709;28;20025;-76
2023/04/19 09:22:21;;;;;;;0.20;0.20;;;14.50;99.90;;;;;;5034801;28;20017;-76
2023/04/19 09:24:47;;;;;;;0.20;0.20;;;14.50;99.90;;;;;;5034387;28;20487;-76
2023/04/19 09:27:35;;;;;;;0.10;0.10;;;14.50;99.90;;;;;;5014600;28;20033;-76
2023/04/19 09:30:02;;;;;;;0.10;0.10;;;14.40;99.90;;;;;;5033482;28;20055;-76
2023/04/19 09:32:43;;;;;;;0.10;0.10;;;14.60;99.90;;;;;;5034076;28;20419;-77
2023/04/19 09:35:08;;;;;;;0.10;0.10;;;14.90;99.90;;;;;;5034324;28;20025;-77
2023/04/19 09:37:34;;;;;;;0.20;0.20;;;14.80;99.90;;;;;;5032894;28;20039;-77
2023/04/19 09:40:20;;;;;;;0.20;0.20;;;14.70;99.90;;;;;;5033813;28;20457;-77
2023/04/19 09:42:45;;;;;;;0.20;0.20;;;14.70;99.90;;;;;;5033821;28;20475;-77
2023/04/19 09:45:11;;;;;;;0.10;0.10;;;15.00;99.90;;;;;;5016343;28;20032;-77
2023/04/19 09:47:37;;;;;;;0.20;0.20;;;14.80;99.90;;;;;;5034027;28;20059;-77
2023/04/19 09:50:07;;;;;;;0.20;0.20;;;14.50;99.90;;;;;;5033910;28;20479;-77
2023/04/19 09:52:33;;;;;;;0.10;0.10;;;14.50;99.90;;;;;;5034264;28;20032;-77
2023/04/19 09:55:04;;;;;;;0.20;0.20;;;15.00;99.90;;;;;;5033552;28;20026;-77
2023/04/19 09:57:31;;;;;;;0.10;0.10;;;15.20;99.90;;;;;;5033849;28;20104;-77
2023/04/19 10:00:00;;;;;;;0.10;0.10;;;14.80;99.90;;;;;;5036596;28;20030;-77
2023/04/19 10:02:33;;;;;;;0.20;0.20;;;15.10;99.90;;;;;;5020567;28;20022;-77
2023/04/19 10:04:59;;;;;;;0.20;0.20;;;15.40;99.90;;;;;;5011023;28;20028;-77
2023/04/19 10:07:26;;;;;;;0.10;0.10;;;15.80;99.90;;;;;;5014300;28;20017;-77
2023/04/19 10:09:55;;;;;;;0.15;0.15;;;16.00;99.90;;;;;;5013927;28;20082;-77
2023/04/19 10:12:24;;;;;;;0.20;0.20;;;16.10;99.90;;;;;;5016614;28;20372;-77
2023/04/19 10:14:50;;;;;;;0.20;0.20;;;16.40;99.90;;;;;;5026358;28;20025;-78
2023/04/19 10:17:16;;;;;;;0.10;0.10;;;16.60;99.90;;;;;;5024584;28;20033;-77
2023/04/19 10:19:44;;;;;;;0.20;0.20;;;16.90;99.90;;;;;;5017628;28;20026;-77
2023/04/19 10:22:11;;;;;;;0.10;0.10;;;16.60;99.90;;;;;;4996004;28;20037;-77
2023/04/19 10:24:36;;;;;;;0.10;0.10;;;16.40;99.90;;;;;;5008417;28;20053;-77
2023/04/19 10:27:10;;;;;;;0.20;0.20;;;16.40;99.90;;;;;;5016383;28;20049;-78
2023/04/19 10:30:04;;;;;;;0.10;0.10;;;16.50;99.90;;;;;;5028756;28;20050;-78
2023/04/19 10:32:40;;;;;;;0.20;0.20;;;16.60;99.90;;;;;;4996435;28;20691;-78
2023/04/19 10:35:20;;;;;;;0.20;0.20;;;16.20;99.90;;;;;;5006373;28;20116;-77
2023/04/19 10:38:07;;;;;;;0.10;0.10;;;16.30;99.90;;;;;;5053086;28;20036;-78
2023/04/19 10:43:15;;;;;;;0.20;0.20;;;16.50;99.90;;;;;;5051947;23;20053;-78
2023/04/19 10:45:41;;;;;;;0.15;0.15;;;16.60;99.90;;;;;;5033721;28;20033;-77
2023/04/19 10:48:32;;;;;;;0.10;0.10;;;16.20;99.90;;;;;;5016184;28;20364;-78
2023/04/19 10:51:02;;;;;;;0.20;0.20;;;16.40;99.90;;;;;;5015511;28;20080;-78
2023/04/19 10:53:46;;;;;;;0.17;0.17;;;16.50;99.90;;;;;;5015601;28;20079;-78
2023/04/19 10:56:12;;;;;;;;;;;16.60;99.90;;;;;;5032980;28;20505;-76
2023/04/19 10:58:59;;;;;;;0.10;0.10;;;16.60;99.90;;;;;;5033261;28;19996;-77
2023/04/19 11:01:31;;;;;;;0.20;0.20;;;16.90;99.90;;;;;;5125852;23;20041;-78
2023/04/19 11:03:57;;;;;;;0.20;0.20;;;17.00;99.90;;;;;;5053119;28;20031;-77
2023/04/19 11:06:25;;;;;;;0.10;0.10;;;17.20;99.90;;;;;;5035318;28;20029;-78
2023/04/19 11:08:52;;;;;;;0.20;0.20;;;17.90;99.90;;;;;;5053107;28;20390;-77
2023/04/19 11:11:21;;;;;;;0.10;0.10;;;18.00;99.90;;;;;;5056130;28;20033;-76
2023/04/19 11:13:52;;;;;;;0.10;0.10;;;18.40;99.90;;;;;;5056451;28;20032;-77
2023/04/19 11:16:17;;;;;;;0.10;0.10;;;18.10;99.90;;;;;;5039164;28;20510;-77
2023/04/19 11:18:43;;;;;;;0.10;0.10;;;17.60;99.90;;;;;;5057423;28;20092;-77
2023/04/19 11:21:13;;;;;;;0.20;0.20;;;17.50;99.90;;;;;;5056591;28;20017;-77
2023/04/19 11:23:39;;;;;;;0.10;0.10;;;18.00;99.90;;;;;;5056717;28;20021;-77
2023/04/19 11:26:09;;;;;;;0.10;0.10;;;18.30;99.90;;;;;;5056086;28;20021;-77
2023/04/19 11:28:34;;;;;;;0.20;0.20;;;18.20;99.90;;;;;;5038835;28;20218;-77
2023/04/19 11:31:00;;;;;;;0.20;0.20;;;18.10;99.90;;;;;;4999337;23;20034;-77
2023/04/19 11:33:27;;;;;;;0.10;0.10;;;17.10;99.90;;;;;;4977738;28;20035;-77
2023/04/19 11:35:53;;;;;;;0.10;0.10;;;16.90;99.90;;;;;;4977942;28;20078;-77
2023/04/19 11:38:18;;;;;;;0.20;0.20;;;16.70;99.90;;;;;;4977137;28;20023;-77
2023/04/19 11:40:44;;;;;;;0.20;0.20;;;17.40;99.90;;;;;;4979824;28;20059;-77
2023/04/19 11:43:10;;;;;;;0.20;0.20;;;17.60;99.90;;;;;;4997031;28;20026;-77
2023/04/19 11:45:37;;;;;;;0.20;0.20;;;17.50;99.90;;;;;;4997154;28;20018;-77
2023/04/19 11:48:04;;;;;;;0.10;0.10;;;17.50;99.90;;;;;;4997113;28;20395;-76
2023/04/19 11:52:59;;;;;;;0.10;0.10;;;17.40;99.90;;;;;;5055167;23;20511;-77
2023/04/19 11:55:25;;;;;;;0.10;0.10;;;17.30;99.90;;;;;;5036149;28;20037;-77
2023/04/19 11:57:50;;;;;;;0.10;0.10;;;16.70;99.90;;;;;;5036533;28;20067;-77
2023/04/19 12:00:27;;;;;;;0.10;0.10;;;16.60;99.90;;;;;;5035560;28;20044;-76
2023/04/19 12:02:55;;;;;;;0.10;0.10;;;16.10;99.90;;;;;;5035960;28;20100;-77
2023/04/19 12:05:21;;;;;;;0.20;0.20;;;16.30;99.90;;;;;;5034864;28;20507;-77
2023/04/19 12:08:06;;;;;;;0.10;0.10;;;15.90;99.90;;;;;;5034796;28;20026;-77
2023/04/19 12:10:32;;;;;;;0.20;0.20;;;16.10;99.90;;;;;;5035569;28;20014;-77
2023/04/19 12:12:58;;;;;;;0.10;0.10;;;16.80;99.90;;;;;;5034675;28;20032;-77
2023/04/19 12:15:43;;;;;;;0.20;0.20;;;18.00;99.90;;;;;;5035693;28;20048;-77
2023/04/19 12:18:08;;;;;;;0.17;0.17;;;18.60;99.90;;;;;;5016298;28;20022;-77
2023/04/19 12:20:36;;;;;;;0.10;0.10;;;19.20;99.90;;;;;;5015344;28;20076;-77
2023/04/19 12:23:02;;;;;;;0.10;0.10;;;19.30;99.90;;;;;;5013730;28;20117;-77
2023/04/19 12:25:32;;;;;;;0.10;0.10;;;19.30;99.90;;;;;;5015653;28;20128;-76
2023/04/19 12:28:02;;;;;;;0.10;0.10;;;19.80;99.90;;;;;;5011425;28;20022;-77
2023/04/19 12:30:28;;;;;;;0.10;0.10;;;20.00;98.60;;;;;;4995893;28;20073;-77
2023/04/19 12:32:54;;;;;;;0.10;0.10;;;20.20;98.70;;;;;;4996105;28;20101;-77
2023/04/19 12:35:24;;;;;;;0.10;0.10;;;20.60;99.50;;;;;;5030522;28;20037;-77
2023/04/19 12:37:58;;;;;;;0.10;0.10;;;21.10;96.00;;;;;;5035605;28;20546;-77
2023/04/19 12:40:27;;;;;;;0.10;0.10;;;20.80;95.40;;;;;;5034504;28;20030;-77
2023/04/19 12:42:53;;;;;;;0.10;0.10;;;20.20;95.10;;;;;;5043047;23;20608;-77
2023/04/19 12:45:19;;;;;;;0.10;0.10;;;19.80;94.20;;;;;;5054632;28;20048;-78
2023/04/19 12:47:46;;;;;;;0.10;0.10;;;19.40;95.10;;;;;;5055273;28;20036;-77
2023/04/19 12:50:13;;;;;;;0.10;0.10;;;19.00;95.80;;;;;;5037681;28;20530;-77
2023/04/19 12:52:39;;;;;;;0.10;0.10;;;19.20;96.00;;;;;;5036758;28;20107;-77
2023/04/19 12:55:08;;;;;;;0.10;0.10;;;19.80;96.10;;;;;;5055160;28;20075;-77
2023/04/19 12:57:34;;;;;;;0.10;0.10;;;20.00;96.20;;;;;;5032705;28;20029;-77